Time;durP1;ratioP1;P1;durP2;ratioP2;P2;SDS_P1;SDS_P2;PMS_P1;PMS_P2;Temp;Humidity;BMP_temperature;BMP_pressure;BME280_temperature;BME280_humidity;BME280_pressure;Samples;Min_cycle;Max_cycle;Signal;HPM_P1;HPM_P2
2020/12/14 00:01:54;;;;;;;0.80;0.80;;;8.10;99.90;;;;;;5021086;28;20204;-78
2020/12/14 00:04:19;;;;;;;0.00;0.00;;;8.10;99.90;;;;;;5021103;28;20261;-78
2020/12/14 00:06:51;;;;;;;0.00;0.00;;;8.20;99.90;;;;;;5038577;28;20243;-79
2020/12/14 00:09:17;;;;;;;1.40;0.60;;;8.20;99.90;;;;;;5021321;28;20163;-79
2020/12/14 00:11:43;;;;;;;0.30;0.27;;;8.20;99.90;;;;;;5038679;28;20514;-79
2020/12/14 00:14:08;;;;;;;0.03;0.03;;;8.20;99.90;;;;;;5037943;28;20699;-79
2020/12/14 00:16:34;;;;;;;0.17;0.17;;;8.10;99.90;;;;;;5038081;28;20175;-79
2020/12/14 00:18:59;;;;;;;0.10;0.10;;;8.10;99.90;;;;;;5037855;28;20203;-79
2020/12/14 00:21:25;;;;;;;0.00;0.00;;;8.20;99.90;;;;;;5020382;28;20200;-79
2020/12/14 00:23:51;;;;;;;0.43;0.20;;;8.10;99.90;;;;;;5020477;28;20179;-79
2020/12/14 00:26:18;;;;;;;0.10;0.07;;;8.20;99.90;;;;;;5020343;28;20210;-79
2020/12/14 00:28:47;;;;;;;0.10;0.10;;;8.20;99.90;;;;;;5020240;28;20180;-79
2020/12/14 00:31:14;;;;;;;0.00;0.00;;;8.20;99.90;;;;;;5020118;28;20541;-78
2020/12/14 00:33:39;;;;;;;0.40;0.20;;;8.20;99.90;;;;;;5019845;28;20639;-80
2020/12/14 00:36:10;;;;;;;0.00;0.00;;;8.20;99.90;;;;;;5019844;28;20226;-78
2020/12/14 00:38:35;;;;;;;0.00;0.00;;;8.20;99.90;;;;;;5037588;28;20160;-80
2020/12/14 00:41:01;;;;;;;0.00;0.00;;;8.30;99.90;;;;;;5020074;28;20559;-79
2020/12/14 00:43:26;;;;;;;0.57;0.57;;;8.30;99.90;;;;;;5038163;28;20250;-79
2020/12/14 00:45:52;;;;;;;0.30;0.30;;;8.30;99.90;;;;;;5019997;28;20628;-78
2020/12/14 00:48:17;;;;;;;0.00;0.00;;;8.40;99.90;;;;;;5020163;28;20180;-79
2020/12/14 00:50:43;;;;;;;0.10;0.10;;;8.30;99.90;;;;;;5020416;28;20200;-78
2020/12/14 00:53:08;;;;;;;1.23;0.73;;;8.30;99.90;;;;;;5020229;28;20222;-79
2020/12/14 00:55:34;;;;;;;0.00;0.00;;;8.30;99.90;;;;;;5037880;28;20176;-78
2020/12/14 00:57:59;;;;;;;1.03;0.37;;;8.40;99.90;;;;;;5020054;28;20627;-79
2020/12/14 01:00:25;;;;;;;0.00;0.00;;;8.40;99.90;;;;;;5047611;23;20359;-79
2020/12/14 01:02:50;;;;;;;0.53;0.53;;;8.40;99.90;;;;;;5035624;28;20736;-79
2020/12/14 01:05:16;;;;;;;0.40;0.27;;;8.50;99.90;;;;;;5035865;28;20168;-79
2020/12/14 01:07:41;;;;;;;0.00;0.00;;;8.40;99.90;;;;;;5017937;28;20191;-79
2020/12/14 01:10:07;;;;;;;0.20;0.20;;;8.50;99.90;;;;;;5027449;28;20717;-80
2020/12/14 01:12:33;;;;;;;0.20;0.20;;;8.40;99.90;;;;;;5055348;28;20657;-80
2020/12/14 01:14:59;;;;;;;0.00;0.00;;;8.40;99.90;;;;;;5037542;28;20202;-80
2020/12/14 01:17:24;;;;;;;0.40;0.40;;;8.50;99.90;;;;;;5055265;28;20560;-79
2020/12/14 01:19:50;;;;;;;0.00;0.00;;;8.50;99.90;;;;;;5055208;28;20598;-80
2020/12/14 01:22:15;;;;;;;0.20;0.07;;;8.50;99.90;;;;;;5055119;28;20198;-80
2020/12/14 01:24:41;;;;;;;0.33;0.23;;;8.50;99.90;;;;;;5055424;28;20180;-80
2020/12/14 01:27:06;;;;;;;0.13;0.13;;;8.40;99.90;;;;;;5055335;28;20163;-80
2020/12/14 01:29:32;;;;;;;0.30;0.30;;;8.50;99.90;;;;;;5054970;28;20248;-79
2020/12/14 01:31:57;;;;;;;0.00;0.00;;;8.50;99.90;;;;;;5055229;28;20171;-80
2020/12/14 01:34:23;;;;;;;0.00;0.00;;;8.50;99.90;;;;;;5055258;28;20634;-80
2020/12/14 01:36:49;;;;;;;0.00;0.00;;;8.50;99.90;;;;;;5037040;28;20175;-80
2020/12/14 01:39:15;;;;;;;0.00;0.00;;;8.50;99.90;;;;;;5037498;28;20229;-79
2020/12/14 01:41:41;;;;;;;0.10;0.10;;;8.50;99.90;;;;;;5038964;28;20219;-78
2020/12/14 01:44:07;;;;;;;0.10;0.10;;;8.50;99.90;;;;;;5056273;28;20193;-78
2020/12/14 01:46:32;;;;;;;1.80;0.70;;;8.50;99.90;;;;;;5038157;28;20176;-78
2020/12/14 01:49:02;;;;;;;0.17;0.03;;;8.60;99.90;;;;;;5056631;28;20252;-78
2020/12/14 01:51:30;;;;;;;0.23;0.23;;;8.50;99.90;;;;;;5056436;28;20163;-78
2020/12/14 01:53:58;;;;;;;0.00;0.00;;;8.50;99.90;;;;;;5056736;28;20239;-78
2020/12/14 01:56:25;;;;;;;0.00;0.00;;;8.50;99.90;;;;;;5038436;28;20167;-78
2020/12/14 01:58:51;;;;;;;0.10;0.00;;;8.50;99.90;;;;;;5056279;28;20251;-78
2020/12/14 02:01:17;;;;;;;0.80;0.30;;;8.60;99.90;;;;;;5056170;28;20232;-78
2020/12/14 02:03:42;;;;;;;0.13;0.13;;;8.60;99.90;;;;;;5055883;28;20180;-78
2020/12/14 02:06:08;;;;;;;0.50;0.20;;;8.60;99.90;;;;;;5038035;28;20277;-78
2020/12/14 02:08:34;;;;;;;0.10;0.10;;;8.70;99.90;;;;;;5055961;28;20172;-78
2020/12/14 02:11:00;;;;;;;0.00;0.00;;;8.70;99.90;;;;;;5036294;28;20191;-79
2020/12/14 02:13:27;;;;;;;2.87;0.60;;;8.60;99.90;;;;;;5054683;28;20179;-80
2020/12/14 02:15:53;;;;;;;0.00;0.00;;;8.60;99.90;;;;;;5036297;28;20539;-80
2020/12/14 02:18:18;;;;;;;0.20;0.20;;;8.70;99.90;;;;;;5054134;28;20183;-80
2020/12/14 02:20:44;;;;;;;0.00;0.00;;;8.60;99.90;;;;;;5036240;28;20233;-79
2020/12/14 02:23:09;;;;;;;0.10;0.10;;;8.60;99.90;;;;;;5036119;28;20636;-80
2020/12/14 02:25:35;;;;;;;0.10;0.10;;;8.60;99.90;;;;;;5036125;28;20182;-79
2020/12/14 02:28:00;;;;;;;0.10;0.10;;;8.70;99.90;;;;;;5054083;28;20524;-79
2020/12/14 02:30:26;;;;;;;0.30;0.30;;;8.60;99.90;;;;;;5054890;28;20190;-78
2020/12/14 02:32:51;;;;;;;0.00;0.00;;;8.60;99.90;;;;;;5036372;28;20700;-79
2020/12/14 02:35:17;;;;;;;0.10;0.10;;;8.70;99.90;;;;;;5054690;28;20170;-79
2020/12/14 02:37:42;;;;;;;0.30;0.30;;;8.60;99.90;;;;;;5053753;28;20164;-80
2020/12/14 02:40:08;;;;;;;0.00;0.00;;;8.60;99.90;;;;;;5035799;28;20202;-80
2020/12/14 02:42:33;;;;;;;0.10;0.10;;;8.60;99.90;;;;;;5035814;28;20209;-80
2020/12/14 02:44:59;;;;;;;0.10;0.10;;;8.60;99.90;;;;;;5035767;28;20175;-80
2020/12/14 02:47:24;;;;;;;0.00;0.00;;;8.60;99.90;;;;;;5035843;28;20547;-80
2020/12/14 02:49:50;;;;;;;0.00;0.00;;;8.60;99.90;;;;;;5035711;28;20192;-79
2020/12/14 02:52:16;;;;;;;0.00;0.00;;;8.60;99.90;;;;;;5035779;28;20260;-80
2020/12/14 02:54:43;;;;;;;0.00;0.00;;;8.50;99.90;;;;;;5035720;28;20643;-80
2020/12/14 02:57:09;;;;;;;0.03;0.03;;;8.50;99.90;;;;;;5052835;28;20174;-80
2020/12/14 02:59:35;;;;;;;0.93;0.93;;;8.50;99.90;;;;;;5053465;28;20203;-79
2020/12/14 03:02:01;;;;;;;0.00;0.00;;;8.50;99.90;;;;;;5053375;28;20546;-79
2020/12/14 03:04:26;;;;;;;0.97;0.90;;;8.40;99.90;;;;;;5053438;28;20173;-80
2020/12/14 03:06:52;;;;;;;0.00;0.00;;;8.40;99.90;;;;;;5035525;28;20536;-80
2020/12/14 03:09:20;;;;;;;0.33;0.33;;;8.40;99.90;;;;;;5053319;28;20262;-79
2020/12/14 03:11:46;;;;;;;0.30;0.30;;;8.40;99.90;;;;;;5053334;28;20170;-80
2020/12/14 03:14:12;;;;;;;0.00;0.00;;;8.40;99.90;;;;;;5053326;28;20175;-80
2020/12/14 03:16:42;;;;;;;0.07;0.07;;;8.50;99.90;;;;;;5035490;28;20250;-80
2020/12/14 03:19:08;;;;;;;0.00;0.00;;;8.50;99.90;;;;;;5035271;28;20171;-80
2020/12/14 03:21:33;;;;;;;0.20;0.20;;;8.50;99.90;;;;;;5035291;28;20177;-79
2020/12/14 03:24:00;;;;;;;0.00;0.00;;;8.40;99.90;;;;;;5035309;28;20258;-79
2020/12/14 03:26:25;;;;;;;0.10;0.10;;;8.40;99.90;;;;;;5035398;28;20175;-79
2020/12/14 03:28:51;;;;;;;0.00;0.00;;;8.50;99.90;;;;;;5035300;28;20167;-80
2020/12/14 03:31:16;;;;;;;0.10;0.10;;;8.50;99.90;;;;;;5035221;28;20187;-79
2020/12/14 03:33:42;;;;;;;0.00;0.00;;;8.50;99.90;;;;;;5035245;28;20674;-79
2020/12/14 03:36:07;;;;;;;0.00;0.00;;;8.60;99.90;;;;;;5053175;28;20163;-80
2020/12/14 03:38:33;;;;;;;0.00;0.00;;;8.60;99.90;;;;;;5035240;28;20177;-80
2020/12/14 03:41:05;;;;;;;0.10;0.10;;;8.60;99.90;;;;;;5035168;28;20199;-80
2020/12/14 03:43:32;;;;;;;0.00;0.00;;;8.60;99.90;;;;;;5045812;28;20184;-80
2020/12/14 03:45:57;;;;;;;0.00;0.00;;;8.70;99.90;;;;;;5035967;28;20565;-79
2020/12/14 03:48:24;;;;;;;0.00;0.00;;;8.60;99.90;;;;;;5052997;28;20196;-79
2020/12/14 03:50:49;;;;;;;0.10;0.07;;;8.60;99.90;;;;;;5052877;28;20198;-80
2020/12/14 03:53:15;;;;;;;0.03;0.03;;;8.60;99.90;;;;;;5052915;28;20172;-80
2020/12/14 03:55:41;;;;;;;0.20;0.17;;;8.60;99.90;;;;;;5035092;28;20212;-79
2020/12/14 03:58:07;;;;;;;0.10;0.10;;;8.60;99.90;;;;;;5034954;28;20175;-79
2020/12/14 04:00:33;;;;;;;0.00;0.00;;;8.60;99.90;;;;;;5052669;28;20229;-79
2020/12/14 04:03:01;;;;;;;0.93;0.20;;;8.60;99.90;;;;;;5034845;28;20345;-80
2020/12/14 04:05:27;;;;;;;0.00;0.00;;;8.60;99.90;;;;;;5035019;28;20182;-80
2020/12/14 04:07:52;;;;;;;0.10;0.10;;;8.60;99.90;;;;;;5052803;28;20164;-80
2020/12/14 04:10:18;;;;;;;0.40;0.40;;;8.60;99.90;;;;;;5056570;28;20199;-79
2020/12/14 04:12:43;;;;;;;0.00;0.00;;;8.60;99.90;;;;;;5056471;28;20179;-80
2020/12/14 04:15:09;;;;;;;0.67;0.37;;;8.60;99.90;;;;;;5056671;28;20171;-79
2020/12/14 04:17:34;;;;;;;0.10;0.10;;;8.70;99.90;;;;;;5056682;28;20185;-79
2020/12/14 04:20:00;;;;;;;0.10;0.10;;;8.70;99.90;;;;;;5038728;28;20199;-80
2020/12/14 04:22:25;;;;;;;0.20;0.20;;;8.70;99.90;;;;;;5056212;28;20200;-79
2020/12/14 04:24:51;;;;;;;0.10;0.10;;;8.70;99.90;;;;;;5038416;28;20173;-79
2020/12/14 04:27:16;;;;;;;0.40;0.37;;;8.70;99.90;;;;;;5038358;28;20206;-79
2020/12/14 04:29:42;;;;;;;0.00;0.00;;;8.80;99.90;;;;;;5056354;28;20187;-79
2020/12/14 04:32:07;;;;;;;0.10;0.10;;;8.80;99.90;;;;;;5056628;28;20190;-79
2020/12/14 04:34:33;;;;;;;0.20;0.10;;;8.80;99.90;;;;;;5056360;28;20567;-79
2020/12/14 04:36:58;;;;;;;0.20;0.07;;;8.80;99.90;;;;;;5056034;28;20187;-79
2020/12/14 04:39:24;;;;;;;0.30;0.30;;;8.80;99.90;;;;;;5055944;28;20183;-79
2020/12/14 04:41:55;;;;;;;0.10;0.10;;;8.90;99.90;;;;;;5037963;28;20195;-79
2020/12/14 04:44:21;;;;;;;0.03;0.03;;;8.90;99.90;;;;;;5056034;28;20148;-79
2020/12/14 04:46:48;;;;;;;0.10;0.10;;;9.00;99.90;;;;;;5038090;28;20171;-80
2020/12/14 04:49:15;;;;;;;0.20;0.20;;;8.90;99.90;;;;;;5038143;28;20186;-80
2020/12/14 04:51:41;;;;;;;0.10;0.10;;;8.90;99.90;;;;;;5055795;28;20168;-79
2020/12/14 04:54:06;;;;;;;0.00;0.00;;;8.90;99.90;;;;;;5037979;28;20674;-79
2020/12/14 04:56:38;;;;;;;0.03;0.03;;;8.90;99.90;;;;;;5055933;28;20164;-79
2020/12/14 04:59:04;;;;;;;0.20;0.10;;;8.90;99.90;;;;;;5037623;28;20172;-79
2020/12/14 05:01:29;;;;;;;0.40;0.40;;;8.90;99.90;;;;;;5055489;28;20159;-79
2020/12/14 05:03:55;;;;;;;0.20;0.20;;;9.00;99.90;;;;;;5055878;28;20169;-79
2020/12/14 05:06:21;;;;;;;0.10;0.10;;;9.00;99.90;;;;;;5037691;28;20167;-79
2020/12/14 05:08:46;;;;;;;0.20;0.20;;;9.00;99.90;;;;;;5037745;28;20246;-79
2020/12/14 05:11:12;;;;;;;0.03;0.03;;;9.00;99.90;;;;;;5056148;28;20219;-79
2020/12/14 05:13:37;;;;;;;0.10;0.10;;;9.00;99.90;;;;;;5055520;28;20202;-79
2020/12/14 05:16:03;;;;;;;0.50;0.50;;;8.90;99.90;;;;;;5055506;28;20674;-79
2020/12/14 05:18:28;;;;;;;0.40;0.13;;;8.90;99.90;;;;;;5037612;28;20228;-79
2020/12/14 05:21:03;;;;;;;0.00;0.00;;;9.00;99.90;;;;;;5036931;28;20278;-80
2020/12/14 05:23:30;;;;;;;0.03;0.03;;;9.00;99.90;;;;;;5037848;28;20195;-79
2020/12/14 05:26:06;;;;;;;0.00;0.00;;;9.00;99.90;;;;;;5055195;28;20167;-79
2020/12/14 05:28:32;;;;;;;0.00;0.00;;;9.00;99.90;;;;;;5037380;28;20170;-79
2020/12/14 05:30:57;;;;;;;0.33;0.27;;;9.00;99.90;;;;;;5037110;28;20184;-79
2020/12/14 05:33:25;;;;;;;4.37;0.97;;;8.90;99.90;;;;;;5054910;28;20202;-79
2020/12/14 05:35:51;;;;;;;0.40;0.40;;;8.90;99.90;;;;;;5037050;28;20171;-79
2020/12/14 05:38:23;;;;;;;0.20;0.20;;;9.00;99.90;;;;;;5037095;28;20182;-79
2020/12/14 05:40:54;;;;;;;0.10;0.10;;;9.00;99.90;;;;;;5054820;28;20206;-79
2020/12/14 05:43:22;;;;;;;0.23;0.23;;;8.90;99.90;;;;;;5054731;28;20248;-80
2020/12/14 05:45:48;;;;;;;0.00;0.00;;;8.90;99.90;;;;;;5054789;28;20159;-80
2020/12/14 05:48:24;;;;;;;0.00;0.00;;;8.90;99.90;;;;;;5036980;28;20174;-79
2020/12/14 05:50:52;;;;;;;0.50;0.30;;;8.90;99.90;;;;;;5036649;28;20187;-79
2020/12/14 05:53:20;;;;;;;0.43;0.43;;;8.90;99.90;;;;;;5037285;28;20262;-79
2020/12/14 05:55:46;;;;;;;0.10;0.10;;;8.90;99.90;;;;;;5054803;28;20164;-79
2020/12/14 05:58:16;;;;;;;0.67;0.30;;;8.90;99.90;;;;;;5054755;28;20167;-80
2020/12/14 06:00:46;;;;;;;0.20;0.20;;;8.90;99.90;;;;;;5036566;28;20203;-80
2020/12/14 06:03:12;;;;;;;0.10;0.10;;;8.90;99.90;;;;;;5037064;28;20195;-78
2020/12/14 06:05:38;;;;;;;0.07;0.07;;;8.90;99.90;;;;;;5057115;28;20168;-78
2020/12/14 06:08:19;;;;;;;0.10;0.10;;;8.90;99.90;;;;;;5056499;28;20199;-78
2020/12/14 06:10:49;;;;;;;0.30;0.20;;;8.90;99.90;;;;;;5054181;28;20273;-80
2020/12/14 06:13:22;;;;;;;0.00;0.00;;;8.90;99.90;;;;;;5054687;28;20208;-80
2020/12/14 06:15:53;;;;;;;0.40;0.10;;;8.90;99.90;;;;;;5054209;28;20547;-79
2020/12/14 06:18:22;;;;;;;0.20;0.20;;;8.90;99.90;;;;;;5054107;28;20278;-79
2020/12/14 06:20:49;;;;;;;0.10;0.10;;;8.90;99.90;;;;;;5053952;28;20260;-79
2020/12/14 06:23:16;;;;;;;0.30;0.20;;;8.90;99.90;;;;;;5054028;28;20226;-80
2020/12/14 06:25:42;;;;;;;0.20;0.10;;;8.90;99.90;;;;;;5036120;28;20164;-79
2020/12/14 06:28:26;;;;;;;0.23;0.23;;;8.90;99.90;;;;;;5053936;28;20175;-79
2020/12/14 06:30:54;;;;;;;0.50;0.50;;;8.90;99.90;;;;;;5035894;28;20211;-79
2020/12/14 06:33:40;;;;;;;0.00;0.00;;;8.90;99.90;;;;;;5053013;28;20174;-80
2020/12/14 06:36:22;;;;;;;0.33;0.33;;;8.90;99.90;;;;;;5053860;28;20163;-80
2020/12/14 06:38:49;;;;;;;0.00;0.00;;;9.00;99.90;;;;;;5035925;28;20175;-79
2020/12/14 06:41:21;;;;;;;0.73;0.73;;;9.00;99.90;;;;;;5053667;28;20305;-79
2020/12/14 06:43:49;;;;;;;0.10;0.10;;;9.00;99.90;;;;;;5035902;28;20260;-80
2020/12/14 06:46:26;;;;;;;0.00;0.00;;;9.10;99.90;;;;;;5035885;28;20163;-80
2020/12/14 06:48:52;;;;;;;0.20;0.17;;;9.10;99.90;;;;;;5053669;28;20174;-79
2020/12/14 06:51:18;;;;;;;0.10;0.10;;;9.10;99.90;;;;;;5053528;28;20257;-79
2020/12/14 06:53:54;;;;;;;0.30;0.30;;;9.10;99.90;;;;;;5035786;28;20650;-80
2020/12/14 06:56:31;;;;;;;0.20;0.20;;;9.20;99.90;;;;;;5035562;28;20692;-79
2020/12/14 06:58:57;;;;;;;0.50;0.50;;;9.20;99.90;;;;;;5035463;28;20179;-79
2020/12/14 07:01:38;;;;;;;0.30;0.30;;;9.20;99.90;;;;;;5053875;28;20191;-79
2020/12/14 07:04:15;;;;;;;0.00;0.00;;;9.20;99.90;;;;;;5053553;28;20639;-79
2020/12/14 07:06:41;;;;;;;0.10;0.10;;;9.20;99.90;;;;;;5053672;28;20159;-79
2020/12/14 07:09:29;;;;;;;0.23;0.17;;;9.20;99.90;;;;;;5035702;28;20262;-79
2020/12/14 07:12:16;;;;;;;0.53;0.53;;;9.20;99.90;;;;;;5032806;28;20171;-79
2020/12/14 07:14:52;;;;;;;0.37;0.10;;;9.30;99.90;;;;;;5033437;28;20180;-79
2020/12/14 07:17:26;;;;;;;0.10;0.10;;;9.30;99.90;;;;;;5015891;28;20156;-79
2020/12/14 07:19:53;;;;;;;0.00;0.00;;;9.40;99.90;;;;;;5033479;28;20192;-79
2020/12/14 07:22:20;;;;;;;0.03;0.03;;;9.30;99.90;;;;;;5015518;28;20293;-79
2020/12/14 07:24:58;;;;;;;0.00;0.00;;;9.40;99.90;;;;;;5033367;28;20169;-80
2020/12/14 07:27:25;;;;;;;0.30;0.20;;;9.40;99.90;;;;;;5015562;28;20624;-79
2020/12/14 07:29:50;;;;;;;0.27;0.13;;;9.40;99.90;;;;;;5033847;28;20223;-79
2020/12/14 07:32:16;;;;;;;0.00;0.00;;;9.40;99.90;;;;;;5033557;28;20164;-78
2020/12/14 07:34:54;;;;;;;0.40;0.40;;;9.50;99.90;;;;;;5021632;28;20258;-78
2020/12/14 07:37:23;;;;;;;0.50;0.50;;;9.50;99.90;;;;;;5056199;28;20194;-78
2020/12/14 07:39:49;;;;;;;0.00;0.00;;;9.40;99.90;;;;;;5055600;28;20266;-78
2020/12/14 07:42:25;;;;;;;0.30;0.30;;;9.50;99.90;;;;;;5035431;28;20200;-79
2020/12/14 07:45:15;;;;;;;0.20;0.20;;;9.50;99.90;;;;;;5056270;28;20159;-79
2020/12/14 07:47:42;;;;;;;0.03;0.03;;;9.40;99.90;;;;;;5039337;28;20152;-79
2020/12/14 07:50:10;;;;;;;0.00;0.00;;;9.50;99.90;;;;;;5020704;28;20192;-79
2020/12/14 07:52:35;;;;;;;0.10;0.10;;;9.50;99.90;;;;;;5019388;28;20168;-79
2020/12/14 07:55:06;;;;;;;0.53;0.07;;;9.50;99.90;;;;;;5037089;28;20172;-79
2020/12/14 07:57:36;;;;;;;0.00;0.00;;;9.40;99.90;;;;;;5037023;28;20168;-79
2020/12/14 08:00:06;;;;;;;0.30;0.30;;;9.50;99.90;;;;;;5036830;28;20200;-79
2020/12/14 08:02:31;;;;;;;0.00;0.00;;;9.60;99.90;;;;;;5052507;28;20223;-79
2020/12/14 08:04:59;;;;;;;0.10;0.10;;;9.50;99.90;;;;;;5056702;28;20196;-79
2020/12/14 08:07:28;;;;;;;0.20;0.20;;;9.50;99.90;;;;;;5056796;28;20217;-79
2020/12/14 08:09:54;;;;;;;0.00;0.00;;;9.50;99.90;;;;;;5056654;28;20182;-79
2020/12/14 08:12:19;;;;;;;0.50;0.50;;;9.50;99.90;;;;;;5038779;28;20270;-79
2020/12/14 08:14:48;;;;;;;0.03;0.03;;;9.50;99.90;;;;;;5038868;28;20168;-79
2020/12/14 08:17:14;;;;;;;0.03;0.03;;;9.40;99.90;;;;;;5056652;28;20253;-79
2020/12/14 08:19:40;;;;;;;0.13;0.13;;;9.50;99.90;;;;;;5037896;28;20231;-79
2020/12/14 08:22:07;;;;;;;1.70;1.03;;;9.50;99.90;;;;;;5026684;28;20695;-78
2020/12/14 08:24:34;;;;;;;0.10;0.10;;;9.40;99.90;;;;;;5052588;28;20167;-81
2020/12/14 08:27:12;;;;;;;0.30;0.23;;;9.40;99.90;;;;;;5038081;28;20630;-84
2020/12/14 08:30:00;;;;;;;0.10;0.10;;;9.40;99.90;;;;;;5038289;28;20190;-84
2020/12/14 08:32:26;;;;;;;0.17;0.17;;;9.30;99.90;;;;;;5038274;28;20183;-82
2020/12/14 08:34:51;;;;;;;0.33;0.33;;;9.30;99.90;;;;;;5038099;28;20167;-80
2020/12/14 08:37:20;;;;;;;0.40;0.40;;;9.10;99.90;;;;;;5055954;28;20259;-80
2020/12/14 08:39:59;;;;;;;0.73;0.43;;;9.00;99.90;;;;;;5038252;28;20195;-80
2020/12/14 08:42:29;;;;;;;0.40;0.40;;;8.90;99.90;;;;;;5035311;28;20195;-82
2020/12/14 08:45:09;;;;;;;0.27;0.27;;;8.90;99.90;;;;;;5036792;28;20309;-81
2020/12/14 08:47:36;;;;;;;0.40;0.40;;;9.00;99.90;;;;;;5002532;28;20214;-79
2020/12/14 08:50:03;;;;;;;0.10;0.10;;;8.90;99.90;;;;;;5023353;28;20198;-78
2020/12/14 08:52:28;;;;;;;1.30;1.20;;;8.90;99.90;;;;;;5057399;28;20195;-80
2020/12/14 08:54:55;;;;;;;0.20;0.20;;;8.90;99.90;;;;;;5029372;28;20595;-77
2020/12/14 08:57:22;;;;;;;0.57;0.27;;;8.90;99.90;;;;;;5035969;28;20518;-78
2020/12/14 09:00:01;;;;;;;0.00;0.00;;;8.90;99.90;;;;;;5017834;28;20557;-78
2020/12/14 09:02:26;;;;;;;0.13;0.13;;;8.90;99.90;;;;;;5036078;28;20192;-78
2020/12/14 09:04:53;;;;;;;0.10;0.10;;;8.90;99.90;;;;;;5020145;28;20179;-79
2020/12/14 09:07:23;;;;;;;0.53;0.53;;;8.90;99.90;;;;;;5055588;28;20254;-78
2020/12/14 09:09:49;;;;;;;0.83;0.83;;;8.90;99.90;;;;;;5023889;28;20199;-80
2020/12/14 09:12:15;;;;;;;0.30;0.30;;;8.80;99.90;;;;;;5053637;28;20674;-79
2020/12/14 09:14:41;;;;;;;7.43;0.47;;;8.80;99.90;;;;;;5048862;28;20175;-79
2020/12/14 09:17:18;;;;;;;0.10;0.10;;;8.90;99.90;;;;;;5043595;28;20208;-78
2020/12/14 09:19:51;;;;;;;1.10;0.47;;;8.80;99.90;;;;;;5036638;28;20199;-79
2020/12/14 09:22:25;;;;;;;0.83;0.83;;;8.90;99.90;;;;;;5041761;28;20692;-79
2020/12/14 09:24:51;;;;;;;0.10;0.10;;;8.90;99.90;;;;;;5042454;28;20167;-79
2020/12/14 09:27:17;;;;;;;0.50;0.47;;;8.90;99.90;;;;;;5022091;28;20237;-80
2020/12/14 09:29:43;;;;;;;0.17;0.17;;;8.90;99.90;;;;;;5035049;28;20276;-78
2020/12/14 09:32:11;;;;;;;0.40;0.40;;;8.90;99.90;;;;;;5035286;28;20210;-78
2020/12/14 09:34:37;;;;;;;1.00;1.00;;;8.90;99.90;;;;;;5017318;28;20606;-79
2020/12/14 09:37:04;;;;;;;0.20;0.03;;;9.00;99.90;;;;;;5017292;28;20263;-78
2020/12/14 09:39:30;;;;;;;0.77;0.77;;;8.90;99.90;;;;;;5034904;28;20267;-78
2020/12/14 09:41:58;;;;;;;0.20;0.20;;;8.90;99.90;;;;;;5034916;28;20196;-78
2020/12/14 09:44:25;;;;;;;0.00;0.00;;;9.00;99.90;;;;;;5017269;28;20179;-78
2020/12/14 09:46:50;;;;;;;0.20;0.20;;;9.00;99.90;;;;;;5035171;28;20252;-77
2020/12/14 09:49:16;;;;;;;0.03;0.03;;;9.00;99.90;;;;;;5034930;28;20220;-78
2020/12/14 09:51:42;;;;;;;0.13;0.13;;;9.00;99.90;;;;;;5017135;28;20179;-78
2020/12/14 09:54:08;;;;;;;0.27;0.27;;;9.10;99.90;;;;;;5016969;28;20172;-78
2020/12/14 09:56:34;;;;;;;0.20;0.20;;;9.10;99.90;;;;;;5016970;28;20172;-79
2020/12/14 09:59:00;;;;;;;0.53;0.20;;;9.10;99.90;;;;;;5041925;28;20228;-79
2020/12/14 10:01:28;;;;;;;0.10;0.10;;;9.10;99.90;;;;;;5022066;28;20640;-80
2020/12/14 10:03:54;;;;;;;0.50;0.50;;;9.20;99.90;;;;;;5049000;28;20192;-80
2020/12/14 10:06:19;;;;;;;0.57;0.20;;;9.20;99.90;;;;;;5025520;28;20652;-79
2020/12/14 10:08:45;;;;;;;0.10;0.10;;;9.20;99.90;;;;;;5034681;28;20175;-80
2020/12/14 10:11:11;;;;;;;0.30;0.30;;;9.20;99.90;;;;;;5034588;28;20223;-81
2020/12/14 10:13:39;;;;;;;0.13;0.13;;;9.20;99.90;;;;;;5017327;28;20530;-79
2020/12/14 10:16:04;;;;;;;0.33;0.33;;;9.30;99.90;;;;;;5034585;28;20710;-81
2020/12/14 10:18:30;;;;;;;0.00;0.00;;;9.20;99.90;;;;;;5016831;28;20167;-79
2020/12/14 10:20:56;;;;;;;0.10;0.10;;;9.30;99.90;;;;;;5034322;28;20191;-80
2020/12/14 10:23:21;;;;;;;0.50;0.50;;;9.30;99.90;;;;;;5034145;28;20204;-80
2020/12/14 10:25:48;;;;;;;0.10;0.10;;;9.30;99.90;;;;;;5016399;28;20168;-80
2020/12/14 10:28:13;;;;;;;0.23;0.13;;;9.30;99.90;;;;;;5034348;28;20177;-80
2020/12/14 10:30:39;;;;;;;1.60;1.00;;;9.40;99.90;;;;;;5033947;28;20562;-80
2020/12/14 10:33:05;;;;;;;0.80;0.80;;;9.40;99.90;;;;;;5016365;28;20581;-79
2020/12/14 10:35:31;;;;;;;3.50;0.70;;;9.40;99.90;;;;;;5016221;28;20172;-84
2020/12/14 10:37:57;;;;;;;0.20;0.20;;;9.50;99.90;;;;;;5016281;28;20242;-80
2020/12/14 10:40:25;;;;;;;0.07;0.07;;;9.50;99.90;;;;;;5033932;28;20567;-80
2020/12/14 10:42:51;;;;;;;0.07;0.03;;;9.50;99.90;;;;;;5016081;28;20219;-80
2020/12/14 10:45:17;;;;;;;0.20;0.20;;;9.50;99.90;;;;;;5016038;28;20221;-80
2020/12/14 10:47:43;;;;;;;1.50;0.53;;;9.50;99.90;;;;;;5016020;28;20654;-80
2020/12/14 10:50:09;;;;;;;0.37;0.37;;;9.50;99.90;;;;;;5016316;28;20714;-80
2020/12/14 10:52:35;;;;;;;0.23;0.23;;;9.50;99.90;;;;;;5016161;28;20179;-80
2020/12/14 10:55:01;;;;;;;0.00;0.00;;;9.50;99.90;;;;;;5015963;28;20173;-82
2020/12/14 10:57:27;;;;;;;0.10;0.10;;;9.60;99.90;;;;;;5033748;28;20172;-85
2020/12/14 10:59:57;;;;;;;0.00;0.00;;;9.50;99.90;;;;;;5016031;28;20218;-78
2020/12/14 11:02:23;;;;;;;0.10;0.10;;;9.50;99.90;;;;;;5017411;28;20224;-78
2020/12/14 11:04:48;;;;;;;0.43;0.30;;;9.50;99.90;;;;;;5017784;28;20234;-77
2020/12/14 11:07:14;;;;;;;0.80;0.80;;;9.40;99.90;;;;;;5018285;28;20623;-77
2020/12/14 11:09:39;;;;;;;0.20;0.20;;;9.40;99.90;;;;;;5036266;28;20722;-77
2020/12/14 11:12:06;;;;;;;0.30;0.30;;;9.40;99.90;;;;;;5036013;28;20179;-77
2020/12/14 11:14:32;;;;;;;0.00;0.00;;;9.30;99.90;;;;;;5034161;28;20172;-78
2020/12/14 11:16:58;;;;;;;0.30;0.30;;;9.30;99.90;;;;;;5035141;28;20636;-78
2020/12/14 11:19:24;;;;;;;0.13;0.13;;;9.40;99.90;;;;;;5016553;28;20192;-78
2020/12/14 11:21:55;;;;;;;0.57;0.57;;;9.40;99.90;;;;;;5037092;28;20578;-78
2020/12/14 11:24:22;;;;;;;0.10;0.10;;;9.40;99.90;;;;;;5036904;28;20164;-78
2020/12/14 11:26:48;;;;;;;0.33;0.20;;;9.40;99.90;;;;;;5036373;28;20255;-78
2020/12/14 11:29:15;;;;;;;0.37;0.37;;;9.40;99.90;;;;;;5036987;28;20172;-78
2020/12/14 11:31:40;;;;;;;0.00;0.00;;;9.40;99.90;;;;;;5017247;28;20250;-78
2020/12/14 11:34:06;;;;;;;0.43;0.30;;;9.40;99.90;;;;;;5018267;28;20172;-78
2020/12/14 11:36:32;;;;;;;0.20;0.20;;;9.40;99.90;;;;;;5021028;28;20239;-77
2020/12/14 11:38:58;;;;;;;3.67;1.23;;;9.40;99.90;;;;;;5037881;28;20169;-78
2020/12/14 11:41:25;;;;;;;0.10;0.10;;;9.50;99.90;;;;;;5036575;28;20223;-78
2020/12/14 11:43:51;;;;;;;0.67;0.53;;;9.50;99.90;;;;;;5035743;28;20192;-78
2020/12/14 11:46:16;;;;;;;0.30;0.30;;;9.50;99.90;;;;;;5019043;28;20249;-78
2020/12/14 11:48:42;;;;;;;0.27;0.27;;;9.50;99.90;;;;;;5037582;28;20195;-78
2020/12/14 11:51:07;;;;;;;0.30;0.30;;;9.50;99.90;;;;;;5019002;28;20184;-78
2020/12/14 11:53:33;;;;;;;0.20;0.20;;;9.50;99.90;;;;;;5018256;28;20180;-78
2020/12/14 11:55:58;;;;;;;2.00;0.60;;;9.50;99.90;;;;;;5016663;28;20417;-77
2020/12/14 11:58:24;;;;;;;0.67;0.67;;;9.60;99.90;;;;;;5019778;28;20183;-77
2020/12/14 12:00:50;;;;;;;0.37;0.37;;;9.60;99.90;;;;;;5036690;28;20211;-77
2020/12/14 12:03:15;;;;;;;0.23;0.23;;;9.60;99.90;;;;;;5037435;28;20195;-77
2020/12/14 12:05:41;;;;;;;0.23;0.23;;;9.70;99.90;;;;;;5035510;28;20168;-77
2020/12/14 12:08:06;;;;;;;0.60;0.57;;;9.60;99.90;;;;;;5035805;28;20199;-78
2020/12/14 12:10:33;;;;;;;0.40;0.27;;;9.60;99.90;;;;;;5036722;28;20274;-77
2020/12/14 12:12:59;;;;;;;0.30;0.30;;;9.70;99.90;;;;;;5020981;28;20180;-78
2020/12/14 12:15:24;;;;;;;0.20;0.17;;;9.70;99.90;;;;;;5040891;28;20230;-78
2020/12/14 12:17:50;;;;;;;0.20;0.20;;;9.70;99.90;;;;;;5038248;28;20176;-78
2020/12/14 12:20:15;;;;;;;0.20;0.10;;;9.70;99.90;;;;;;5019544;28;20556;-77
2020/12/14 12:22:41;;;;;;;0.40;0.40;;;9.80;99.90;;;;;;5036794;28;20200;-77
2020/12/14 12:25:06;;;;;;;0.63;0.57;;;9.80;99.90;;;;;;5037224;28;20251;-77
2020/12/14 12:27:32;;;;;;;0.53;0.53;;;9.80;99.90;;;;;;5019569;28;20188;-77
2020/12/14 12:29:58;;;;;;;0.30;0.27;;;9.80;99.90;;;;;;5038966;28;20184;-77
2020/12/14 12:32:23;;;;;;;0.40;0.30;;;9.90;99.90;;;;;;5038705;28;20594;-79
2020/12/14 12:34:49;;;;;;;0.27;0.17;;;9.90;99.90;;;;;;5037146;28;20186;-79
2020/12/14 12:37:14;;;;;;;0.20;0.20;;;10.00;99.90;;;;;;5018912;28;20223;-80
2020/12/14 12:39:40;;;;;;;0.80;0.33;;;10.00;99.90;;;;;;5037545;28;20196;-79
2020/12/14 12:42:05;;;;;;;1.20;1.10;;;10.00;99.90;;;;;;5037541;28;20199;-78
2020/12/14 12:44:31;;;;;;;0.27;0.27;;;10.00;99.90;;;;;;5019287;28;20188;-79
2020/12/14 12:46:57;;;;;;;0.37;0.37;;;10.00;99.90;;;;;;5018900;28;20175;-78
2020/12/14 12:49:22;;;;;;;0.10;0.10;;;10.00;99.90;;;;;;5018908;28;20241;-78
2020/12/14 12:51:50;;;;;;;0.10;0.10;;;10.10;99.90;;;;;;5019095;28;20179;-79
2020/12/14 12:54:16;;;;;;;0.30;0.27;;;10.20;99.90;;;;;;5018938;28;20176;-80
2020/12/14 12:56:42;;;;;;;0.40;0.40;;;10.20;99.90;;;;;;5036405;28;20192;-79
2020/12/14 12:59:08;;;;;;;0.23;0.23;;;10.30;99.90;;;;;;5035677;28;20172;-80